Time;durP1;ratioP1;P1;durP2;ratioP2;P2;SDS_P1;SDS_P2;PMS_P1;PMS_P2;Temp;Humidity;BMP_temperature;BMP_pressure;BME280_temperature;BME280_humidity;BME280_pressure;Samples;Min_cycle;Max_cycle;Signal;HPM_P1;HPM_P2
2020/12/26 00:00:03;;;;;;;4.95;2.35;;;;;;;1.09;80.60;99076.50;3507981;28;20074;-67
2020/12/26 00:01:45;;;;;;;4.28;2.33;;;;;;;1.09;79.66;99073.03;3508858;28;20048;-67
2020/12/26 00:03:28;;;;;;;5.88;2.38;;;;;;;1.09;79.77;99071.38;3506629;28;20174;-67
2020/12/26 00:05:09;;;;;;;4.90;2.20;;;;;;;1.09;79.93;99067.94;3508363;28;20048;-67
2020/12/26 00:06:52;;;;;;;10.10;1.95;;;;;;;1.10;79.27;99065.44;3507578;28;20492;-67
2020/12/26 00:08:34;;;;;;;3.53;1.65;;;;;;;1.09;78.38;99062.81;3507042;28;20523;-67
2020/12/26 00:10:16;;;;;;;1.90;1.33;;;;;;;1.10;78.00;99068.00;3508340;28;20428;-67
2020/12/26 00:11:57;;;;;;;2.38;1.30;;;;;;;1.09;78.73;99076.50;3506221;28;20052;-68
2020/12/26 00:13:39;;;;;;;3.00;1.20;;;;;;;1.10;79.67;99078.22;3507914;28;20076;-67
2020/12/26 00:15:20;;;;;;;1.42;0.95;;;;;;;1.10;79.35;99083.31;3508398;28;20519;-68
2020/12/26 00:17:03;;;;;;;2.65;1.58;;;;;;;1.10;79.53;99096.09;3506352;28;20075;-67
2020/12/26 00:18:46;;;;;;;3.33;1.60;;;;;;;1.09;79.04;99094.38;3507552;28;20059;-68
2020/12/26 00:20:27;;;;;;;2.75;1.60;;;;;;;1.08;79.10;99092.63;3508092;28;20044;-67
2020/12/26 00:22:09;;;;;;;2.53;1.30;;;;;;;1.08;78.77;99084.94;3506327;28;20523;-68
2020/12/26 00:23:51;;;;;;;2.80;1.48;;;;;;;1.07;78.68;99090.00;3508460;28;20208;-68
2020/12/26 00:25:33;;;;;;;6.35;1.70;;;;;;;1.07;78.60;99096.00;3506115;28;20097;-68
2020/12/26 00:27:14;;;;;;;2.30;1.63;;;;;;;1.08;79.74;99101.97;3506646;28;20061;-68
2020/12/26 00:28:55;;;;;;;2.03;1.40;;;;;;;1.07;78.87;99100.22;3508449;28;20083;-68
2020/12/26 00:30:36;;;;;;;2.30;1.27;;;;;;;1.05;79.31;99095.03;3506160;28;20527;-68
2020/12/26 00:32:20;;;;;;;3.00;1.60;;;;;;;1.05;79.14;99100.13;3504374;28;20048;-68
2020/12/26 00:34:02;;;;;;;2.85;1.52;;;;;;;1.04;79.07;99093.31;3507833;28;20076;-68
2020/12/26 00:35:44;;;;;;;2.45;1.42;;;;;;;1.02;78.86;99094.03;3506051;28;20067;-67
2020/12/26 00:37:25;;;;;;;2.58;1.50;;;;;;;1.02;79.12;99092.38;3507309;28;20531;-69
2020/12/26 00:39:07;;;;;;;2.08;1.38;;;;;;;1.01;79.24;99100.81;3506712;28;20051;-68
2020/12/26 00:40:48;;;;;;;3.92;1.77;;;;;;;1.02;79.16;99094.03;3506371;28;20094;-68
2020/12/26 00:42:30;;;;;;;2.17;1.20;;;;;;;1.01;78.72;99105.94;3507083;28;20496;-68
2020/12/26 00:44:11;;;;;;;3.25;1.02;;;;;;;1.01;78.73;99107.63;3506660;28;20604;-68
2020/12/26 00:45:53;;;;;;;2.60;1.40;;;;;;;1.01;79.03;99099.97;3509208;28;20636;-68
2020/12/26 00:47:34;;;;;;;3.35;1.42;;;;;;;1.03;78.61;99100.91;3511723;28;20500;-66
2020/12/26 00:49:16;;;;;;;2.90;1.88;;;;;;;1.03;79.15;99100.91;3509490;28;20404;-68
2020/12/26 00:50:57;;;;;;;2.70;1.73;;;;;;;1.03;79.16;99104.31;3511201;28;20044;-68
2020/12/26 00:52:39;;;;;;;3.42;2.10;;;;;;;1.03;78.69;99106.00;3510260;28;20056;-68
2020/12/26 00:54:20;;;;;;;8.57;3.00;;;;;;;1.02;78.60;99105.13;3509491;28;20063;-69
2020/12/26 00:56:01;;;;;;;5.10;2.35;;;;;;;1.03;78.99;99106.00;3511394;28;20051;-68
2020/12/26 00:57:43;;;;;;;4.75;2.40;;;;;;;1.01;79.02;99105.94;3509978;28;20052;-68
2020/12/26 00:59:24;;;;;;;4.95;2.38;;;;;;;1.01;79.09;99107.63;3510425;28;20040;-68
2020/12/26 01:01:05;;;;;;;5.38;2.47;;;;;;;0.99;78.87;99100.75;3512104;28;20477;-69
2020/12/26 01:02:47;;;;;;;8.38;3.67;;;;;;;0.99;79.24;99105.00;3510084;28;20051;-69
2020/12/26 01:04:29;;;;;;;7.47;3.65;;;;;;;0.97;79.48;99107.50;3511659;28;20059;-68
2020/12/26 01:06:14;;;;;;;7.88;3.20;;;;;;;0.97;79.42;99109.19;3510227;28;20042;-69
2020/12/26 01:07:56;;;;;;;5.18;2.75;;;;;;;0.95;79.26;99114.22;3509783;28;20051;-68
2020/12/26 01:09:37;;;;;;;6.80;3.45;;;;;;;0.94;79.59;99115.00;3512396;28;20105;-68
2020/12/26 01:11:19;;;;;;;6.85;3.40;;;;;;;0.94;79.84;99116.69;3507735;28;20044;-68
2020/12/26 01:13:00;;;;;;;7.00;3.30;;;;;;;0.93;80.23;99114.94;3509561;28;20055;-68
2020/12/26 01:14:42;;;;;;;6.65;3.42;;;;;;;0.92;79.59;99116.63;3512277;28;20090;-68
2020/12/26 01:16:23;;;;;;;5.07;2.50;;;;;;;0.92;79.66;99108.09;3509795;28;20051;-69
2020/12/26 01:18:04;;;;;;;4.50;2.70;;;;;;;0.91;79.68;99103.78;3511492;28;20443;-68
2020/12/26 01:19:47;;;;;;;5.32;2.70;;;;;;;0.87;79.97;99097.69;3510638;28;20553;-69
2020/12/26 01:21:28;;;;;;;7.40;3.45;;;;;;;0.92;79.50;99111.53;3510027;28;20519;-68
2020/12/26 01:23:09;;;;;;;7.22;3.22;;;;;;;0.91;79.62;99112.34;3511748;28;20094;-68
2020/12/26 01:24:52;;;;;;;5.68;3.30;;;;;;;0.92;79.56;99110.66;3509771;28;20411;-47
2020/12/26 01:26:33;;;;;;;5.88;3.10;;;;;;;0.92;79.43;99108.09;3510065;28;20041;-47
2020/12/26 01:28:15;;;;;;;7.25;3.10;;;;;;;0.91;79.34;99112.34;3511701;28;20462;-47
2020/12/26 01:29:56;;;;;;;7.85;2.70;;;;;;;0.92;79.83;99120.88;3509663;28;20044;-46
2020/12/26 01:31:39;;;;;;;5.45;2.60;;;;;;;0.90;79.77;99114.84;3510906;28;20055;-47
2020/12/26 01:33:20;;;;;;;6.32;2.40;;;;;;;0.90;79.45;99110.59;3510813;28;20044;-47
2020/12/26 01:35:03;;;;;;;4.93;2.60;;;;;;;0.90;79.73;99109.72;3509604;28;20048;-46
2020/12/26 01:36:49;;;;;;;4.50;2.50;;;;;;;0.91;79.65;99104.69;3512159;28;20048;-47
2020/12/26 01:38:30;;;;;;;4.05;2.10;;;;;;;0.90;79.70;99105.47;3508891;28;20450;-47
2020/12/26 01:40:12;;;;;;;6.22;2.78;;;;;;;0.91;79.84;99114.91;3509303;28;20067;-46
2020/12/26 01:41:54;;;;;;;7.00;2.83;;;;;;;0.93;79.67;99109.84;3510164;28;20048;-46
2020/12/26 01:43:35;;;;;;;6.70;3.28;;;;;;;0.91;79.99;99106.34;3509626;28;20430;-50
2020/12/26 01:45:16;;;;;;;5.65;2.70;;;;;;;0.92;79.83;99106.41;3509421;28;20076;-46
2020/12/26 01:46:58;;;;;;;6.93;3.10;;;;;;;0.92;79.81;99108.09;3511533;28;20048;-47
2020/12/26 01:48:40;;;;;;;5.45;2.75;;;;;;;0.91;79.86;99098.69;3509098;28;20415;-47
2020/12/26 01:50:23;;;;;;;5.35;2.67;;;;;;;0.91;79.87;99098.69;3511168;28;20048;-46
2020/12/26 01:52:08;;;;;;;5.28;2.72;;;;;;;0.89;79.89;99098.63;3509865;28;20083;-46
2020/12/26 01:53:50;;;;;;;4.85;2.30;;;;;;;0.90;79.54;99102.94;3509377;28;20049;-46
2020/12/26 01:55:31;;;;;;;5.68;2.78;;;;;;;0.89;79.41;99090.97;3510894;28;20499;-47
2020/12/26 01:57:13;;;;;;;5.95;2.80;;;;;;;0.90;79.69;99104.63;3508071;28;20044;-47
2020/12/26 01:58:54;;;;;;;4.90;2.28;;;;;;;0.89;79.97;99106.28;3509492;28;20052;-47
2020/12/26 02:00:36;;;;;;;4.25;2.22;;;;;;;0.89;80.45;99105.41;3511386;28;20048;-47
2020/12/26 02:02:17;;;;;;;5.25;2.22;;;;;;;0.89;79.67;99100.31;3509391;28;20393;-47
2020/12/26 02:03:59;;;;;;;3.45;1.98;;;;;;;0.89;80.20;99100.31;3510979;28;20113;-47
2020/12/26 02:05:41;;;;;;;3.45;1.58;;;;;;;0.90;79.40;99104.63;3509933;28;20051;-47
2020/12/26 02:07:23;;;;;;;3.80;1.95;;;;;;;0.89;79.38;99100.31;3509121;28;20044;-46
2020/12/26 02:09:05;;;;;;;2.58;1.65;;;;;;;0.89;79.72;99108.81;3511602;28;20052;-47
2020/12/26 02:10:47;;;;;;;3.15;2.00;;;;;;;0.89;79.26;99107.97;3509275;28;20385;-47
2020/12/26 02:12:29;;;;;;;3.05;1.80;;;;;;;0.88;79.54;99111.34;3509299;28;20417;-47
2020/12/26 02:14:11;;;;;;;3.60;1.95;;;;;;;0.89;79.79;99113.06;3497179;28;20454;-47
2020/12/26 02:16:03;;;;;;;4.65;1.83;;;;;;;0.88;79.16;99113.91;3505512;28;20044;-47
2020/12/26 02:17:45;;;;;;;4.90;1.90;;;;;;;0.89;79.42;99116.50;3509098;28;20048;-47
2020/12/26 02:19:27;;;;;;;4.25;1.60;;;;;;;0.90;79.50;99118.25;3511491;28;20059;-47
2020/12/26 02:21:09;;;;;;;4.47;2.08;;;;;;;0.89;79.83;99118.19;3509114;28;20040;-47
2020/12/26 02:22:51;;;;;;;5.63;2.10;;;;;;;0.89;79.49;99123.28;3510889;28;20051;-47
2020/12/26 02:24:33;;;;;;;2.53;1.40;;;;;;;0.90;79.11;99125.03;3509648;28;20492;-47
2020/12/26 02:26:15;;;;;;;3.58;1.70;;;;;;;0.89;78.99;99116.50;3509001;28;20048;-47
2020/12/26 02:27:56;;;;;;;3.80;1.80;;;;;;;0.89;79.45;99121.59;3508723;28;20444;-47
2020/12/26 02:29:37;;;;;;;3.03;1.60;;;;;;;0.88;79.10;99124.97;3506388;28;20055;-46
2020/12/26 02:31:19;;;;;;;3.35;1.80;;;;;;;0.87;79.17;99125.78;3507886;28;20090;-48
2020/12/26 02:33:00;;;;;;;3.05;1.80;;;;;;;0.87;79.45;99138.53;3510238;28;20048;-46
2020/12/26 02:34:41;;;;;;;3.00;1.50;;;;;;;0.86;79.77;99141.03;3507494;28;20052;-46
2020/12/26 02:36:23;;;;;;;3.80;2.05;;;;;;;0.85;79.46;99135.03;3509470;28;20056;-46
2020/12/26 02:38:05;;;;;;;4.85;2.25;;;;;;;0.85;79.13;99123.97;3508618;28;20412;-46
2020/12/26 02:39:47;;;;;;;3.80;2.17;;;;;;;0.84;79.30;99124.75;3508490;28;20054;-46
2020/12/26 02:41:28;;;;;;;5.63;2.45;;;;;;;0.84;79.68;99120.53;3510668;28;20443;-46
2020/12/26 02:43:18;;;;;;;4.07;2.30;;;;;;;0.83;79.52;99125.59;3507229;28;20101;-47
2020/12/26 02:44:59;;;;;;;3.53;1.80;;;;;;;0.82;79.35;99134.03;3508224;28;20048;-46
2020/12/26 02:46:41;;;;;;;5.50;2.20;;;;;;;0.80;78.88;99127.19;3511203;28;20388;-46
2020/12/26 02:48:23;;;;;;;4.53;2.20;;;;;;;0.79;79.37;99125.44;3508881;28;20062;-47
2020/12/26 02:50:09;;;;;;;3.17;1.85;;;;;;;0.78;79.69;99123.69;3508848;28;20478;-46
2020/12/26 02:51:51;;;;;;;4.05;1.88;;;;;;;0.78;79.24;99122.81;3510297;28;20048;-45
2020/12/26 02:53:32;;;;;;;3.72;1.83;;;;;;;0.75;79.13;99123.59;3508780;28;20043;-46
2020/12/26 02:55:15;;;;;;;3.80;2.05;;;;;;;0.73;78.62;99117.50;3510628;28;20075;-46
2020/12/26 02:56:56;;;;;;;3.50;1.80;;;;;;;0.74;78.84;99123.50;3509306;28;20071;-47
2020/12/26 02:58:39;;;;;;;3.45;1.60;;;;;;;0.73;78.63;99125.16;3508749;28;20510;-46
2020/12/26 03:00:20;;;;;;;3.53;2.13;;;;;;;0.72;78.44;99123.44;3510749;28;20162;-46
2020/12/26 03:02:02;;;;;;;4.28;2.28;;;;;;;0.74;78.87;99128.63;3508825;28;20040;-48
2020/12/26 03:03:43;;;;;;;3.53;1.98;;;;;;;0.72;78.61;99131.09;3508758;28;20401;-47
2020/12/26 03:05:25;;;;;;;3.50;1.85;;;;;;;0.73;78.42;99134.50;3510870;28;20063;-46
2020/12/26 03:07:06;;;;;;;3.70;1.92;;;;;;;0.72;78.63;99135.31;3507924;28;20051;-46
2020/12/26 03:08:48;;;;;;;4.53;1.75;;;;;;;0.73;77.88;99137.06;3510069;28;20533;-46
2020/12/26 03:10:30;;;;;;;3.13;1.67;;;;;;;0.73;78.32;99137.06;3509307;28;20060;-46
2020/12/26 03:12:11;;;;;;;2.80;1.67;;;;;;;0.73;78.66;99137.94;3508695;28;20047;-46
2020/12/26 03:13:52;;;;;;;3.53;1.75;;;;;;;0.71;78.40;99134.44;3510854;28;20359;-47
2020/12/26 03:15:34;;;;;;;2.42;1.40;;;;;;;0.72;78.33;99137.84;3508383;28;20059;-46
2020/12/26 03:17:15;;;;;;;2.45;1.20;;;;;;;0.72;78.60;99135.31;3508589;28;20045;-45
2020/12/26 03:18:57;;;;;;;3.88;1.80;;;;;;;0.72;78.49;99146.41;3510812;28;20138;-47
2020/12/26 03:20:38;;;;;;;3.20;1.90;;;;;;;0.71;78.65;99146.34;3508701;28;20055;-46
2020/12/26 03:22:19;;;;;;;3.38;1.65;;;;;;;0.71;78.16;99149.75;3509729;28;20388;-46
2020/12/26 03:24:01;;;;;;;3.17;2.00;;;;;;;0.71;78.24;99147.22;3509344;28;20060;-47
2020/12/26 03:25:43;;;;;;;3.25;1.73;;;;;;;0.71;78.50;99148.88;3508567;28;20105;-47
2020/12/26 03:27:26;;;;;;;4.70;2.10;;;;;;;0.70;79.06;99149.69;3510897;28;20048;-47
2020/12/26 03:29:07;;;;;;;2.75;1.65;;;;;;;0.68;78.53;99154.72;3508247;28;20047;-46
2020/12/26 03:30:48;;;;;;;3.03;1.80;;;;;;;0.68;78.49;99162.38;3508455;28;20044;-46
2020/12/26 03:32:29;;;;;;;3.35;2.10;;;;;;;0.65;79.06;99159.72;3510988;28;20052;-47
2020/12/26 03:34:11;;;;;;;3.67;2.08;;;;;;;0.64;78.98;99159.63;3508565;28;20135;-47
2020/12/26 03:35:52;;;;;;;3.60;2.15;;;;;;;0.61;78.96;99162.91;3508825;28;20062;-46
2020/12/26 03:37:35;;;;;;;4.97;2.47;;;;;;;0.58;78.74;99162.78;3510019;28;20044;-47
2020/12/26 03:39:16;;;;;;;3.08;1.90;;;;;;;0.55;78.92;99158.41;3508272;28;20657;-46
2020/12/26 03:40:59;;;;;;;5.00;2.55;;;;;;;0.53;79.08;99160.03;3510585;28;20048;-47
2020/12/26 03:42:41;;;;;;;4.05;2.20;;;;;;;0.49;79.46;99157.25;3506813;28;20060;-46
2020/12/26 03:44:22;;;;;;;3.38;2.03;;;;;;;0.46;79.18;99147.78;3508217;28;20055;-46
2020/12/26 03:46:04;;;;;;;4.53;2.50;;;;;;;0.42;79.45;99151.03;3510321;28;20044;-46
2020/12/26 03:47:46;;;;;;;2.45;1.90;;;;;;;0.40;79.03;99152.59;3508487;28;20051;-46
2020/12/26 03:49:27;;;;;;;3.72;2.22;;;;;;;0.39;79.94;99154.28;3508455;28;21103;-46
2020/12/26 03:51:08;;;;;;;4.97;2.05;;;;;;;0.36;79.46;99151.59;3510035;28;20496;-45
2020/12/26 03:52:51;;;;;;;5.57;2.10;;;;;;;0.35;79.70;99154.97;3508117;28;20048;-46
2020/12/26 03:54:32;;;;;;;3.45;1.90;;;;;;;0.34;79.57;99152.34;3510263;28;20048;-46
2020/12/26 03:56:16;;;;;;;4.00;2.00;;;;;;;0.33;79.87;99153.13;3508351;28;20559;-46
2020/12/26 03:57:58;;;;;;;4.88;2.60;;;;;;;0.31;79.71;99148.00;3508096;28;20119;-48
2020/12/26 03:59:39;;;;;;;3.65;2.20;;;;;;;0.28;80.17;99145.28;3510640;28;20048;-46
2020/12/26 04:01:20;;;;;;;3.88;2.13;;;;;;;0.26;80.30;99146.91;3508250;28;20048;-46
2020/12/26 04:03:02;;;;;;;3.08;2.10;;;;;;;0.23;79.88;99142.50;3508381;28;20105;-46
2020/12/26 04:04:44;;;;;;;3.35;2.20;;;;;;;0.21;80.56;99141.56;3510014;28;20500;-46
2020/12/26 04:06:26;;;;;;;3.40;2.05;;;;;;;0.17;80.55;99149.91;3508024;28;20070;-46
2020/12/26 04:08:07;;;;;;;2.78;2.10;;;;;;;0.15;80.64;99146.38;3510046;28;20059;-45
2020/12/26 04:09:49;;;;;;;3.17;2.17;;;;;;;0.12;81.16;99143.72;3508624;28;20054;-46
2020/12/26 04:11:31;;;;;;;4.55;2.40;;;;;;;0.12;81.12;99142.81;3507930;28;20047;-46
2020/12/26 04:13:12;;;;;;;4.28;2.17;;;;;;;0.11;80.68;99148.72;3510441;28;20052;-46
2020/12/26 04:14:54;;;;;;;5.43;2.35;;;;;;;0.09;80.22;99152.91;3508033;28;20051;-46
2020/12/26 04:16:35;;;;;;;4.85;2.10;;;;;;;0.06;80.31;99156.16;3508225;28;20076;-46
2020/12/26 04:18:17;;;;;;;4.32;2.10;;;;;;;0.06;80.96;99168.03;3509860;28;20076;-46
2020/12/26 04:19:58;;;;;;;3.63;2.20;;;;;;;0.06;80.88;99166.34;3508765;28;20079;-46
2020/12/26 04:21:39;;;;;;;3.42;2.33;;;;;;;0.04;80.70;99173.06;3510008;28;20060;-46
2020/12/26 04:23:21;;;;;;;3.17;2.28;;;;;;;0.02;80.95;99170.44;3508216;28;20048;-46
2020/12/26 04:25:03;;;;;;;5.07;2.28;;;;;;;0.04;81.11;99183.25;3507502;28;20059;-46
2020/12/26 04:26:45;;;;;;;4.13;2.33;;;;;;;0.03;81.17;99174.75;3510244;28;20044;-47
2020/12/26 04:28:26;;;;;;;5.00;2.40;;;;;;;0.04;81.47;99173.06;3508058;28;20081;-46
2020/12/26 04:30:08;;;;;;;4.53;2.38;;;;;;;0.06;82.07;99176.56;3507944;28;20429;-46
2020/12/26 04:31:50;;;;;;;5.85;3.10;;;;;;;0.07;81.55;99178.31;3509143;28;20056;-46
2020/12/26 04:33:31;;;;;;;4.13;2.58;;;;;;;0.09;81.80;99178.41;3507829;28;20472;-46
2020/12/26 04:35:12;;;;;;;4.35;2.50;;;;;;;0.10;81.77;99175.03;3509278;28;20052;-46
2020/12/26 04:36:54;;;;;;;5.10;2.33;;;;;;;0.13;81.81;99180.28;3508881;28;20052;-46
2020/12/26 04:38:35;;;;;;;4.95;2.70;;;;;;;0.13;81.99;99180.28;3507801;28;20491;-46
2020/12/26 04:40:17;;;;;;;4.38;2.30;;;;;;;0.13;81.44;99183.69;3510035;28;20044;-46
2020/12/26 04:41:59;;;;;;;3.88;2.33;;;;;;;0.15;81.07;99189.72;3506066;28;20499;-46
2020/12/26 04:43:40;;;;;;;4.82;2.67;;;;;;;0.17;81.24;99194.91;3507912;28;20048;-46
2020/12/26 04:45:22;;;;;;;5.07;2.83;;;;;;;0.19;80.80;99206.09;3495957;28;20044;-46
2020/12/26 04:47:09;;;;;;;5.95;2.92;;;;;;;0.19;80.72;99198.44;3503968;28;20420;-47
2020/12/26 04:49:02;;;;;;;5.22;2.75;;;;;;;0.20;80.44;99197.63;3507973;28;20146;-46
2020/12/26 04:50:47;;;;;;;6.85;3.38;;;;;;;0.21;80.33;99189.16;3509962;28;20397;-47
2020/12/26 04:52:30;;;;;;;6.07;3.17;;;;;;;0.21;80.62;99197.69;3507729;28;20090;-47
2020/12/26 04:54:23;;;;;;;8.73;3.70;;;;;;;0.22;80.24;99193.44;3508382;28;20104;-46
2020/12/26 04:56:04;;;;;;;6.45;3.40;;;;;;;0.23;80.11;99198.63;3508772;28;20466;-49
2020/12/26 04:57:48;;;;;;;6.20;3.13;;;;;;;0.21;80.50;99195.13;3507624;28;20268;-47
2020/12/26 04:59:29;;;;;;;8.85;3.75;;;;;;;0.24;81.26;99204.59;3509616;28;20071;-46
2020/12/26 05:01:11;;;;;;;6.80;3.65;;;;;;;0.24;81.22;99204.59;3508323;28;20496;-46
2020/12/26 05:02:55;;;;;;;6.95;3.38;;;;;;;0.25;80.79;99208.03;3507610;28;20044;-46
2020/12/26 05:04:38;;;;;;;7.38;3.85;;;;;;;0.25;80.99;99214.00;3509915;28;20142;-46
2020/12/26 05:06:20;;;;;;;10.13;3.85;;;;;;;0.25;80.71;99214.00;3507361;28;20052;-46
2020/12/26 05:08:03;;;;;;;7.30;3.55;;;;;;;0.23;80.91;99200.31;3507371;28;20052;-46
2020/12/26 05:09:44;;;;;;;7.30;3.90;;;;;;;0.26;80.88;99199.56;3509864;28;20420;-46
2020/12/26 05:11:25;;;;;;;8.88;4.47;;;;;;;0.26;81.21;99203.03;3507294;28;20553;-46
2020/12/26 05:13:09;;;;;;;8.57;4.68;;;;;;;0.28;81.36;99201.41;3508149;28;20055;-46
2020/12/26 05:14:52;;;;;;;7.72;4.15;;;;;;;0.27;81.32;99197.09;3508729;28;20384;-46
2020/12/26 05:16:33;;;;;;;8.48;3.92;;;;;;;0.25;80.55;99192.75;3507614;28;20055;-46
2020/12/26 05:18:15;;;;;;;7.10;3.63;;;;;;;0.22;80.47;99193.44;3509404;28;20058;-46
2020/12/26 05:19:56;;;;;;;10.35;4.43;;;;;;;0.19;80.55;99194.19;3507972;28;20048;-46
2020/12/26 05:21:45;;;;;;;11.43;3.58;;;;;;;0.16;80.13;99211.03;3507571;28;20043;-46
2020/12/26 05:23:27;;;;;;;9.52;4.60;;;;;;;0.12;80.33;99206.56;3509652;28;20048;-46
2020/12/26 05:25:10;;;;;;;7.70;4.22;;;;;;;0.07;79.92;99202.94;3507384;28;20044;-47
2020/12/26 05:26:53;;;;;;;8.68;4.30;;;;;;;0.01;80.20;99211.16;3507311;28;20045;-46
2020/12/26 05:28:35;;;;;;;7.15;4.65;;;;;;;-0.05;80.29;99211.75;3495916;28;20045;-46
2020/12/26 05:30:17;;;;;;;7.90;4.68;;;;;;;-0.08;80.36;99224.34;3504092;28;20087;-46
2020/12/26 05:31:59;;;;;;;10.35;4.15;;;;;;;-0.12;80.63;99219.91;3510275;28;20504;-46
2020/12/26 05:34:10;;;;;;;6.88;3.92;;;;;;;-0.16;81.08;99228.22;3498145;28;20060;-46
2020/12/26 05:36:02;;;;;;;7.28;4.15;;;;;;;-0.20;80.76;99232.28;3508459;28;20052;-46
2020/12/26 05:37:43;;;;;;;7.68;3.65;;;;;;;-0.24;81.07;99240.56;3509497;28;20080;-46
2020/12/26 05:39:27;;;;;;;8.63;3.30;;;;;;;-0.27;81.06;99230.22;3511730;28;20052;-46
2020/12/26 05:41:09;;;;;;;7.00;3.40;;;;;;;-0.29;81.45;99231.81;3509392;28;20462;-46
2020/12/26 05:42:56;;;;;;;5.13;3.20;;;;;;;-0.31;81.70;99227.44;3508342;28;20163;-46
2020/12/26 05:44:38;;;;;;;5.43;3.58;;;;;;;-0.34;81.36;99234.16;3511758;28;20553;-46
2020/12/26 05:46:19;;;;;;;7.20;3.78;;;;;;;-0.38;81.45;99237.34;3509097;28;20071;-46
2020/12/26 05:48:07;;;;;;;11.25;4.05;;;;;;;-0.42;81.01;99235.44;3510066;28;20052;-46
2020/12/26 05:49:48;;;;;;;6.97;3.40;;;;;;;-0.46;81.06;99242.84;3509459;28;20044;-46
2020/12/26 05:51:31;;;;;;;7.30;3.83;;;;;;;-0.50;81.09;99241.84;3508820;28;20102;-45
2020/12/26 05:53:14;;;;;;;7.28;3.40;;;;;;;-0.56;81.25;99244.06;3455111;28;20040;-46
2020/12/26 05:54:56;;;;;;;6.65;3.35;;;;;;;-0.59;81.65;99251.53;3521408;28;20047;-46
2020/12/26 05:56:37;;;;;;;7.35;3.70;;;;;;;-0.63;81.54;99250.50;3509621;28;20044;-46
2020/12/26 05:58:20;;;;;;;10.60;6.40;;;;;;;-0.68;81.54;99251.06;3510877;28;20048;-45
2020/12/26 06:00:03;;;;;;;10.07;5.72;;;;;;;-0.69;82.01;99259.50;3508454;28;20051;-46
2020/12/26 06:01:44;;;;;;;8.13;5.03;;;;;;;-0.73;82.41;99255.91;3508635;28;20498;-46
2020/12/26 06:03:27;;;;;;;12.82;5.80;;;;;;;-0.75;82.63;99258.41;3510574;28;20055;-46
2020/12/26 06:05:11;;;;;;;9.07;4.25;;;;;;;-0.76;82.79;99260.88;3507550;28;20043;-46
2020/12/26 06:06:54;;;;;;;8.05;3.60;;;;;;;-0.79;82.83;99265.78;3509484;28;20048;-46
2020/12/26 06:08:35;;;;;;;10.50;4.15;;;;;;;-0.84;82.96;99265.53;3509623;28;20044;-46
2020/12/26 06:10:17;;;;;;;11.93;5.80;;;;;;;-0.88;83.16;99273.81;3507722;28;20512;-46
2020/12/26 06:12:01;;;;;;;17.23;8.02;;;;;;;-0.93;83.33;99272.72;3510228;28;20060;-47
2020/12/26 06:13:44;;;;;;;22.92;9.13;;;;;;;-0.97;83.54;99278.44;3506787;28;20083;-46
2020/12/26 06:15:27;;;;;;;21.65;9.48;;;;;;;-1.01;83.89;99273.97;3504366;28;20056;-46
2020/12/26 06:17:25;;;;;;;21.88;9.95;;;;;;;-1.05;84.11;99266.97;3508575;28;20063;-46
2020/12/26 06:19:12;;;;;;;22.80;9.80;;;;;;;-1.05;84.50;99278.03;3506656;28;20105;-46
2020/12/26 06:20:54;;;;;;;19.27;8.88;;;;;;;-1.05;84.81;99285.66;3508496;28;20166;-46
2020/12/26 06:22:46;;;;;;;20.55;10.13;;;;;;;-1.05;84.66;99282.25;3510460;28;20044;-46
2020/12/26 06:24:27;;;;;;;16.90;8.43;;;;;;;-0.97;85.88;99289.50;3506066;28;20048;-45
2020/12/26 06:26:09;;;;;;;23.13;10.02;;;;;;;-0.96;85.32;99282.72;3508198;28;20071;-46
2020/12/26 06:28:01;;;;;;;22.85;11.23;;;;;;;-0.98;84.84;99290.28;3509443;28;20055;-46
2020/12/26 06:29:43;;;;;;;26.05;11.38;;;;;;;-1.01;84.68;99286.69;3508563;28;20101;-46
2020/12/26 06:31:26;;;;;;;25.05;11.73;;;;;;;-1.04;84.97;99284.00;3506319;28;20040;-46
2020/12/26 06:33:07;;;;;;;19.25;10.50;;;;;;;-1.08;84.97;99288.06;3509390;28;20047;-60
2020/12/26 06:34:49;;;;;;;21.33;10.25;;;;;;;-1.08;85.56;99295.69;3508842;28;20040;-60
2020/12/26 06:36:31;;;;;;;24.35;10.18;;;;;;;-1.10;85.64;99293.06;3510489;28;20506;-60
2020/12/26 06:38:15;;;;;;;18.95;9.48;;;;;;;-1.10;85.86;99305.78;3508374;28;20051;-60
2020/12/26 06:39:56;;;;;;;21.35;9.77;;;;;;;-1.12;85.98;99299.75;3507772;28;20048;-60
2020/12/26 06:41:37;;;;;;;59.25;22.75;;;;;;;-1.12;85.82;99307.38;3510246;28;20500;-60
2020/12/26 06:43:48;;;;;;;90.35;31.85;;;;;;;-1.11;86.25;99305.69;3506324;28;20149;-60
2020/12/26 06:45:31;;;;;;;62.67;25.65;;;;;;;-1.12;86.04;99304.84;3505769;28;20419;-60
2020/12/26 06:47:36;;;;;;;66.05;28.05;;;;;;;-1.12;85.90;99304.84;3510182;28;20051;-60
2020/12/26 06:49:25;;;;;;;48.28;21.88;;;;;;;-1.11;86.30;99306.56;3509636;28;20105;-61
2020/12/26 06:51:28;;;;;;;52.38;23.42;;;;;;;-1.07;86.23;99304.19;3504651;28;20125;-60
2020/12/26 06:53:12;;;;;;;56.10;23.95;;;;;;;-1.01;86.65;99304.50;3503039;28;20138;-60
2020/12/26 06:54:54;;;;;;;54.00;22.75;;;;;;;-0.96;86.90;99301.44;3509056;28;20137;-60
2020/12/26 06:56:45;;;;;;;56.35;23.92;;;;;;;-0.88;87.44;99304.38;3508011;28;20055;-60
2020/12/26 06:58:52;;;;;;;60.90;24.98;;;;;;;-0.80;87.11;99313.31;3507121;28;20040;-60
2020/12/26 07:00:34;;;;;;;82.35;32.25;;;;;;;-0.73;87.38;99310.28;3506728;28;20193;-59
2020/12/26 07:02:25;;;;;;;102.95;41.30;;;;;;;-0.63;87.18;99318.41;3507694;28;20116;-60
2020/12/26 07:04:17;;;;;;;104.28;42.13;;;;;;;-0.56;87.66;99321.34;3507815;28;20060;-60
2020/12/26 07:05:59;;;;;;;85.10;34.20;;;;;;;-0.47;87.26;99322.63;3509091;28;20044;-60
2020/12/26 07:07:41;;;;;;;72.32;32.08;;;;;;;-0.42;87.08;99323.75;3506991;28;20059;-60
2020/12/26 07:09:44;;;;;;;67.72;27.40;;;;;;;-0.34;87.04;99328.44;3506070;28;20132;-60
2020/12/26 07:11:26;;;;;;;46.55;20.15;;;;;;;-0.28;86.74;99334.66;3508358;28;20508;-60
2020/12/26 07:13:07;;;;;;;47.78;21.67;;;;;;;-0.22;86.33;99328.19;3506925;28;20577;-60
2020/12/26 07:14:51;;;;;;;49.83;22.02;;;;;;;-0.15;86.91;99326.81;3507726;28;20070;-59
2020/12/26 07:16:41;;;;;;;56.95;24.83;;;;;;;-0.05;86.13;99330.72;3509571;28;20044;-61
2020/12/26 07:18:23;;;;;;;64.28;23.95;;;;;;;0.02;85.73;99327.66;3506001;28;20044;-60
2020/12/26 07:20:06;;;;;;;86.50;33.92;;;;;;;0.09;85.80;99316.97;3506653;28;20398;-62
2020/12/26 07:21:51;;;;;;;41.88;17.67;;;;;;;0.19;85.32;99318.31;3508557;28;20052;-61
2020/12/26 07:23:34;;;;;;;58.97;23.20;;;;;;;0.28;84.90;99313.66;3507679;28;20532;-61
2020/12/26 07:25:15;;;;;;;61.65;24.52;;;;;;;0.39;84.54;99319.25;3507768;28;20048;-62
2020/12/26 07:27:28;;;;;;;52.20;21.13;;;;;;;0.49;83.91;99315.47;3506596;28;20420;-62
2020/12/26 07:29:10;;;;;;;36.95;16.98;;;;;;;0.60;83.69;99320.28;3506157;28;20048;-61
2020/12/26 07:31:17;;;;;;;41.65;17.70;;;;;;;0.62;83.19;99320.38;3505230;28;20055;-61
2020/12/26 07:32:59;;;;;;;38.88;15.68;;;;;;;0.66;82.80;99314.59;3508830;28;20051;-62
2020/12/26 07:34:40;;;;;;;28.08;13.00;;;;;;;0.67;82.05;99316.34;3506013;28;20080;-63
2020/12/26 07:36:22;;;;;;;29.20;12.50;;;;;;;0.68;81.84;99327.44;3505375;28;20097;-62
2020/12/26 07:38:06;;;;;;;36.22;16.33;;;;;;;0.69;82.17;99336.84;3507806;28;20039;-62
2020/12/26 07:39:48;;;;;;;37.65;13.43;;;;;;;0.69;82.12;99339.41;3507307;28;20055;-61
2020/12/26 07:41:29;;;;;;;30.23;14.25;;;;;;;0.73;82.85;99346.38;3507944;28;20079;-61
2020/12/26 07:43:13;;;;;;;33.47;14.55;;;;;;;0.76;82.24;99347.41;3506421;28;20040;-61
2020/12/26 07:44:55;;;;;;;32.83;14.57;;;;;;;0.80;82.40;99349.28;3506753;28;20056;-61
2020/12/26 07:46:37;;;;;;;47.60;17.98;;;;;;;0.81;82.10;99350.19;3509293;28;20055;-61
2020/12/26 07:48:19;;;;;;;40.22;15.75;;;;;;;0.81;82.36;99347.63;3507351;28;20044;-61
2020/12/26 07:50:00;;;;;;;39.83;17.02;;;;;;;0.83;81.92;99350.28;3508124;28;20052;-61
2020/12/26 07:51:43;;;;;;;153.35;49.22;;;;;;;0.81;81.97;99347.63;3502359;28;20051;-47
2020/12/26 07:53:43;;;;;;;149.32;50.47;;;;;;;0.81;82.16;99350.19;3504094;28;20500;-46
2020/12/26 07:55:26;;;;;;;235.38;70.55;;;;;;;0.80;82.22;99356.09;3506148;28;20040;-62
2020/12/26 07:57:08;;;;;;;193.13;55.55;;;;;;;0.80;82.75;99356.94;3501154;28;20044;-61
2020/12/26 07:58:49;;;;;;;53.47;19.88;;;;;;;0.82;82.67;99361.28;3506821;28;20093;-61
2020/12/26 08:00:33;;;;;;;38.67;15.32;;;;;;;0.83;82.70;99366.44;3496906;28;20079;-61
2020/12/26 08:02:14;;;;;;;29.10;12.65;;;;;;;0.83;82.58;99374.13;3507114;28;20097;-62
2020/12/26 08:04:00;;;;;;;20.85;9.75;;;;;;;0.84;82.61;99364.75;3501106;28;20040;-61
2020/12/26 08:05:48;;;;;;;18.65;9.90;;;;;;;0.84;83.12;99368.19;3505750;28;20101;-60
2020/12/26 08:07:32;;;;;;;12.93;7.28;;;;;;;0.87;82.84;99370.88;3507147;28;20051;-60